sensor_id;sensor_type;location;lat;lon;timestamp;P1;durP1;ratioP1;P2;durP2;ratioP2
52414;SDS011;38340;52.964;6.086;2024-01-30T00:01:36;25.02;;;20.40;;
52414;SDS011;38340;52.964;6.086;2024-01-30T00:04:01;25.75;;;19.25;;
52414;SDS011;38340;52.964;6.086;2024-01-30T00:06:27;29.02;;;20.33;;
52414;SDS011;38340;52.964;6.086;2024-01-30T00:08:53;31.55;;;19.65;;
52414;SDS011;38340;52.964;6.086;2024-01-30T00:11:19;26.60;;;19.70;;
52414;SDS011;38340;52.964;6.086;2024-01-30T00:13:44;28.33;;;19.60;;
52414;SDS011;38340;52.964;6.086;2024-01-30T00:16:19;27.10;;;20.10;;
52414;SDS011;38340;52.964;6.086;2024-01-30T00:18:46;25.77;;;20.23;;
52414;SDS011;38340;52.964;6.086;2024-01-30T00:21:12;30.33;;;21.60;;
52414;SDS011;38340;52.964;6.086;2024-01-30T00:23:38;29.13;;;20.95;;
52414;SDS011;38340;52.964;6.086;2024-01-30T00:26:04;28.33;;;18.85;;
52414;SDS011;38340;52.964;6.086;2024-01-30T00:28:30;28.60;;;20.40;;
52414;SDS011;38340;52.964;6.086;2024-01-30T00:30:56;28.92;;;19.40;;
52414;SDS011;38340;52.964;6.086;2024-01-30T00:33:22;30.17;;;21.05;;
52414;SDS011;38340;52.964;6.086;2024-01-30T00:35:47;30.30;;;20.30;;
52414;SDS011;38340;52.964;6.086;2024-01-30T00:38:13;30.48;;;19.52;;
52414;SDS011;38340;52.964;6.086;2024-01-30T00:40:39;27.75;;;19.05;;
52414;SDS011;38340;52.964;6.086;2024-01-30T00:43:04;30.95;;;20.98;;
52414;SDS011;38340;52.964;6.086;2024-01-30T00:45:30;27.02;;;19.20;;
52414;SDS011;38340;52.964;6.086;2024-01-30T00:47:56;29.45;;;20.77;;
52414;SDS011;38340;52.964;6.086;2024-01-30T00:50:22;26.70;;;19.30;;
52414;SDS011;38340;52.964;6.086;2024-01-30T00:52:47;29.40;;;20.17;;
52414;SDS011;38340;52.964;6.086;2024-01-30T00:55:13;26.10;;;20.70;;
52414;SDS011;38340;52.964;6.086;2024-01-30T00:57:39;26.15;;;19.55;;
52414;SDS011;38340;52.964;6.086;2024-01-30T01:00:05;29.00;;;20.60;;
52414;SDS011;38340;52.964;6.086;2024-01-30T01:02:34;28.13;;;20.80;;
52414;SDS011;38340;52.964;6.086;2024-01-30T01:05:00;26.50;;;19.98;;
52414;SDS011;38340;52.964;6.086;2024-01-30T01:07:25;26.27;;;19.50;;
52414;SDS011;38340;52.964;6.086;2024-01-30T01:09:51;29.63;;;20.50;;
52414;SDS011;38340;52.964;6.086;2024-01-30T01:12:17;27.17;;;19.73;;
52414;SDS011;38340;52.964;6.086;2024-01-30T01:14:42;28.38;;;20.15;;
52414;SDS011;38340;52.964;6.086;2024-01-30T01:17:08;32.78;;;20.90;;
52414;SDS011;38340;52.964;6.086;2024-01-30T01:19:34;30.02;;;20.58;;
52414;SDS011;38340;52.964;6.086;2024-01-30T01:21:59;27.90;;;20.45;;
52414;SDS011;38340;52.964;6.086;2024-01-30T01:24:25;28.23;;;19.77;;
52414;SDS011;38340;52.964;6.086;2024-01-30T01:26:51;29.02;;;20.75;;
52414;SDS011;38340;52.964;6.086;2024-01-30T01:29:16;26.55;;;20.17;;
52414;SDS011;38340;52.964;6.086;2024-01-30T01:31:42;28.88;;;20.45;;
52414;SDS011;38340;52.964;6.086;2024-01-30T01:34:11;30.92;;;20.45;;
52414;SDS011;38340;52.964;6.086;2024-01-30T01:36:37;29.00;;;20.92;;
52414;SDS011;38340;52.964;6.086;2024-01-30T01:39:04;30.83;;;22.00;;
52414;SDS011;38340;52.964;6.086;2024-01-30T01:41:30;27.40;;;20.10;;
52414;SDS011;38340;52.964;6.086;2024-01-30T01:43:57;29.92;;;20.63;;
52414;SDS011;38340;52.964;6.086;2024-01-30T01:46:23;29.27;;;21.40;;
52414;SDS011;38340;52.964;6.086;2024-01-30T01:48:50;29.75;;;21.70;;
52414;SDS011;38340;52.964;6.086;2024-01-30T01:51:15;31.50;;;21.25;;
52414;SDS011;38340;52.964;6.086;2024-01-30T01:53:41;30.05;;;21.10;;
52414;SDS011;38340;52.964;6.086;2024-01-30T01:56:07;29.05;;;20.77;;
52414;SDS011;38340;52.964;6.086;2024-01-30T01:58:33;27.23;;;21.58;;
52414;SDS011;38340;52.964;6.086;2024-01-30T02:01:00;30.52;;;22.05;;
52414;SDS011;38340;52.964;6.086;2024-01-30T02:03:27;31.40;;;22.90;;
52414;SDS011;38340;52.964;6.086;2024-01-30T02:05:53;26.17;;;19.98;;
52414;SDS011;38340;52.964;6.086;2024-01-30T02:08:20;27.27;;;21.17;;
52414;SDS011;38340;52.964;6.086;2024-01-30T02:10:45;30.75;;;21.33;;
52414;SDS011;38340;52.964;6.086;2024-01-30T02:13:11;30.50;;;21.77;;
52414;SDS011;38340;52.964;6.086;2024-01-30T02:15:37;32.45;;;21.60;;
52414;SDS011;38340;52.964;6.086;2024-01-30T02:18:03;28.13;;;21.75;;
52414;SDS011;38340;52.964;6.086;2024-01-30T02:20:28;29.70;;;20.95;;
52414;SDS011;38340;52.964;6.086;2024-01-30T02:22:56;32.10;;;21.40;;
52414;SDS011;38340;52.964;6.086;2024-01-30T02:25:41;28.52;;;21.33;;
52414;SDS011;38340;52.964;6.086;2024-01-30T02:28:11;28.75;;;21.23;;
52414;SDS011;38340;52.964;6.086;2024-01-30T02:30:40;30.60;;;22.42;;
52414;SDS011;38340;52.964;6.086;2024-01-30T02:33:07;29.52;;;21.55;;
52414;SDS011;38340;52.964;6.086;2024-01-30T02:35:33;34.08;;;21.95;;
52414;SDS011;38340;52.964;6.086;2024-01-30T02:37:59;32.10;;;21.70;;
52414;SDS011;38340;52.964;6.086;2024-01-30T02:40:25;29.38;;;20.60;;
52414;SDS011;38340;52.964;6.086;2024-01-30T02:42:50;29.30;;;20.88;;
52414;SDS011;38340;52.964;6.086;2024-01-30T02:45:16;27.45;;;21.05;;
52414;SDS011;38340;52.964;6.086;2024-01-30T02:47:42;28.05;;;19.80;;
52414;SDS011;38340;52.964;6.086;2024-01-30T02:50:08;28.85;;;20.30;;
52414;SDS011;38340;52.964;6.086;2024-01-30T02:52:34;32.97;;;21.85;;
52414;SDS011;38340;52.964;6.086;2024-01-30T02:55:00;28.02;;;19.13;;
52414;SDS011;38340;52.964;6.086;2024-01-30T02:57:27;27.73;;;20.40;;
52414;SDS011;38340;52.964;6.086;2024-01-30T02:59:53;33.63;;;19.98;;
52414;SDS011;38340;52.964;6.086;2024-01-30T03:02:19;26.75;;;19.77;;
52414;SDS011;38340;52.964;6.086;2024-01-30T03:04:45;28.02;;;21.02;;
52414;SDS011;38340;52.964;6.086;2024-01-30T03:07:11;27.63;;;20.17;;
52414;SDS011;38340;52.964;6.086;2024-01-30T03:09:37;29.25;;;19.73;;
52414;SDS011;38340;52.964;6.086;2024-01-30T03:12:03;26.10;;;19.27;;
52414;SDS011;38340;52.964;6.086;2024-01-30T03:14:32;27.73;;;19.73;;
52414;SDS011;38340;52.964;6.086;2024-01-30T03:16:58;26.95;;;19.92;;
52414;SDS011;38340;52.964;6.086;2024-01-30T03:19:24;25.75;;;19.20;;
52414;SDS011;38340;52.964;6.086;2024-01-30T03:21:50;27.58;;;20.15;;
52414;SDS011;38340;52.964;6.086;2024-01-30T03:24:16;27.00;;;20.25;;
52414;SDS011;38340;52.964;6.086;2024-01-30T03:26:42;28.35;;;19.45;;
52414;SDS011;38340;52.964;6.086;2024-01-30T03:29:08;28.48;;;19.80;;
52414;SDS011;38340;52.964;6.086;2024-01-30T03:31:34;28.45;;;19.85;;
52414;SDS011;38340;52.964;6.086;2024-01-30T03:34:00;26.95;;;19.17;;
52414;SDS011;38340;52.964;6.086;2024-01-30T03:36:26;28.23;;;20.60;;
52414;SDS011;38340;52.964;6.086;2024-01-30T03:38:52;31.13;;;19.08;;
52414;SDS011;38340;52.964;6.086;2024-01-30T03:41:18;29.02;;;20.02;;
52414;SDS011;38340;52.964;6.086;2024-01-30T03:43:43;28.77;;;19.90;;
52414;SDS011;38340;52.964;6.086;2024-01-30T03:46:11;26.27;;;20.75;;
52414;SDS011;38340;52.964;6.086;2024-01-30T03:48:37;25.65;;;19.02;;
52414;SDS011;38340;52.964;6.086;2024-01-30T03:51:04;26.17;;;19.10;;
52414;SDS011;38340;52.964;6.086;2024-01-30T03:53:30;26.15;;;19.75;;
52414;SDS011;38340;52.964;6.086;2024-01-30T03:55:56;29.92;;;19.40;;
52414;SDS011;38340;52.964;6.086;2024-01-30T03:58:22;25.88;;;18.65;;
52414;SDS011;38340;52.964;6.086;2024-01-30T04:00:48;27.70;;;20.20;;
52414;SDS011;38340;52.964;6.086;2024-01-30T04:03:14;25.25;;;18.88;;
52414;SDS011;38340;52.964;6.086;2024-01-30T04:05:40;25.88;;;19.08;;
52414;SDS011;38340;52.964;6.086;2024-01-30T04:08:07;30.23;;;18.90;;
52414;SDS011;38340;52.964;6.086;2024-01-30T04:10:33;25.98;;;17.88;;
52414;SDS011;38340;52.964;6.086;2024-01-30T04:12:59;25.60;;;18.15;;
52414;SDS011;38340;52.964;6.086;2024-01-30T04:15:25;24.38;;;17.77;;
52414;SDS011;38340;52.964;6.086;2024-01-30T04:17:50;25.92;;;18.65;;
52414;SDS011;38340;52.964;6.086;2024-01-30T04:20:16;24.67;;;17.05;;
52414;SDS011;38340;52.964;6.086;2024-01-30T04:22:43;28.13;;;18.65;;
52414;SDS011;38340;52.964;6.086;2024-01-30T04:25:09;26.33;;;18.45;;
52414;SDS011;38340;52.964;6.086;2024-01-30T04:27:35;21.02;;;16.50;;
52414;SDS011;38340;52.964;6.086;2024-01-30T04:30:01;21.95;;;16.70;;
52414;SDS011;38340;52.964;6.086;2024-01-30T04:32:26;20.88;;;16.05;;
52414;SDS011;38340;52.964;6.086;2024-01-30T04:34:52;22.25;;;15.98;;
52414;SDS011;38340;52.964;6.086;2024-01-30T04:37:18;26.02;;;16.25;;
52414;SDS011;38340;52.964;6.086;2024-01-30T04:39:44;25.08;;;16.75;;
52414;SDS011;38340;52.964;6.086;2024-01-30T04:42:09;21.23;;;15.73;;
52414;SDS011;38340;52.964;6.086;2024-01-30T04:44:35;23.38;;;16.13;;
52414;SDS011;38340;52.964;6.086;2024-01-30T04:47:00;22.23;;;15.90;;
52414;SDS011;38340;52.964;6.086;2024-01-30T04:49:27;21.52;;;15.30;;
52414;SDS011;38340;52.964;6.086;2024-01-30T04:51:54;18.48;;;14.75;;
52414;SDS011;38340;52.964;6.086;2024-01-30T04:54:20;21.67;;;16.85;;
52414;SDS011;38340;52.964;6.086;2024-01-30T04:56:45;21.45;;;14.98;;
52414;SDS011;38340;52.964;6.086;2024-01-30T04:59:11;22.80;;;15.80;;
52414;SDS011;38340;52.964;6.086;2024-01-30T05:01:37;22.13;;;15.23;;
52414;SDS011;38340;52.964;6.086;2024-01-30T05:04:03;24.02;;;14.90;;
52414;SDS011;38340;52.964;6.086;2024-01-30T05:06:28;21.02;;;15.48;;
52414;SDS011;38340;52.964;6.086;2024-01-30T05:08:55;21.23;;;15.95;;
52414;SDS011;38340;52.964;6.086;2024-01-30T05:11:20;21.05;;;15.65;;
52414;SDS011;38340;52.964;6.086;2024-01-30T05:13:46;23.00;;;15.98;;
52414;SDS011;38340;52.964;6.086;2024-01-30T05:16:12;22.15;;;15.50;;
52414;SDS011;38340;52.964;6.086;2024-01-30T05:18:38;20.88;;;15.88;;
52414;SDS011;38340;52.964;6.086;2024-01-30T05:21:04;24.13;;;16.90;;
52414;SDS011;38340;52.964;6.086;2024-01-30T05:23:30;24.25;;;16.35;;
52414;SDS011;38340;52.964;6.086;2024-01-30T05:25:56;26.30;;;17.17;;
52414;SDS011;38340;52.964;6.086;2024-01-30T05:28:22;21.30;;;15.38;;
52414;SDS011;38340;52.964;6.086;2024-01-30T05:30:48;25.83;;;16.48;;
52414;SDS011;38340;52.964;6.086;2024-01-30T05:33:13;23.73;;;16.20;;
52414;SDS011;38340;52.964;6.086;2024-01-30T05:35:39;21.38;;;14.85;;
52414;SDS011;38340;52.964;6.086;2024-01-30T05:38:05;22.23;;;16.13;;
52414;SDS011;38340;52.964;6.086;2024-01-30T05:40:30;24.00;;;16.85;;
52414;SDS011;38340;52.964;6.086;2024-01-30T05:42:56;25.88;;;16.45;;
52414;SDS011;38340;52.964;6.086;2024-01-30T05:45:26;23.73;;;16.10;;
52414;SDS011;38340;52.964;6.086;2024-01-30T05:47:52;23.00;;;16.27;;
52414;SDS011;38340;52.964;6.086;2024-01-30T05:50:18;26.38;;;16.90;;
52414;SDS011;38340;52.964;6.086;2024-01-30T05:52:44;23.50;;;15.60;;
52414;SDS011;38340;52.964;6.086;2024-01-30T05:55:11;24.88;;;16.00;;
52414;SDS011;38340;52.964;6.086;2024-01-30T05:57:37;23.85;;;15.75;;
52414;SDS011;38340;52.964;6.086;2024-01-30T06:00:03;21.20;;;15.75;;
52414;SDS011;38340;52.964;6.086;2024-01-30T06:02:30;25.23;;;15.93;;
52414;SDS011;38340;52.964;6.086;2024-01-30T06:04:56;20.33;;;15.35;;
52414;SDS011;38340;52.964;6.086;2024-01-30T06:07:22;21.92;;;15.63;;
52414;SDS011;38340;52.964;6.086;2024-01-30T06:09:47;20.90;;;15.80;;
52414;SDS011;38340;52.964;6.086;2024-01-30T06:12:13;21.35;;;15.10;;
52414;SDS011;38340;52.964;6.086;2024-01-30T06:14:39;24.55;;;15.82;;
52414;SDS011;38340;52.964;6.086;2024-01-30T06:17:04;57.45;;;21.17;;
52414;SDS011;38340;52.964;6.086;2024-01-30T06:19:30;20.98;;;14.73;;
52414;SDS011;38340;52.964;6.086;2024-01-30T06:21:56;18.85;;;14.73;;
52414;SDS011;38340;52.964;6.086;2024-01-30T06:24:22;21.75;;;15.10;;
52414;SDS011;38340;52.964;6.086;2024-01-30T06:26:48;187.30;;;31.40;;
52414;SDS011;38340;52.964;6.086;2024-01-30T06:29:13;22.00;;;14.38;;
52414;SDS011;38340;52.964;6.086;2024-01-30T06:31:43;22.15;;;15.38;;
52414;SDS011;38340;52.964;6.086;2024-01-30T06:34:11;20.58;;;14.35;;
52414;SDS011;38340;52.964;6.086;2024-01-30T06:36:37;22.98;;;15.65;;
52414;SDS011;38340;52.964;6.086;2024-01-30T06:39:03;42.70;;;16.38;;
52414;SDS011;38340;52.964;6.086;2024-01-30T06:41:29;26.08;;;15.10;;
52414;SDS011;38340;52.964;6.086;2024-01-30T06:43:55;25.60;;;14.50;;
52414;SDS011;38340;52.964;6.086;2024-01-30T06:46:21;17.67;;;14.43;;
52414;SDS011;38340;52.964;6.086;2024-01-30T06:48:48;18.92;;;14.65;;
52414;SDS011;38340;52.964;6.086;2024-01-30T06:51:14;24.23;;;14.25;;
52414;SDS011;38340;52.964;6.086;2024-01-30T06:53:39;20.30;;;14.10;;
52414;SDS011;38340;52.964;6.086;2024-01-30T06:56:05;20.50;;;14.32;;
52414;SDS011;38340;52.964;6.086;2024-01-30T06:58:31;23.00;;;15.55;;
52414;SDS011;38340;52.964;6.086;2024-01-30T07:00:57;20.23;;;15.15;;
52414;SDS011;38340;52.964;6.086;2024-01-30T07:03:23;21.73;;;14.20;;
52414;SDS011;38340;52.964;6.086;2024-01-30T07:05:49;26.88;;;14.98;;
52414;SDS011;38340;52.964;6.086;2024-01-30T07:08:18;30.65;;;14.77;;
52414;SDS011;38340;52.964;6.086;2024-01-30T07:10:44;27.25;;;14.75;;
52414;SDS011;38340;52.964;6.086;2024-01-30T07:13:13;21.40;;;14.50;;
52414;SDS011;38340;52.964;6.086;2024-01-30T07:15:41;27.23;;;14.65;;
52414;SDS011;38340;52.964;6.086;2024-01-30T07:18:07;18.45;;;14.23;;
52414;SDS011;38340;52.964;6.086;2024-01-30T07:20:33;18.75;;;13.85;;
52414;SDS011;38340;52.964;6.086;2024-01-30T07:22:58;18.45;;;14.50;;
52414;SDS011;38340;52.964;6.086;2024-01-30T07:25:24;19.15;;;14.68;;
52414;SDS011;38340;52.964;6.086;2024-01-30T07:27:54;17.00;;;13.55;;
52414;SDS011;38340;52.964;6.086;2024-01-30T07:30:21;18.75;;;13.30;;
52414;SDS011;38340;52.964;6.086;2024-01-30T07:32:48;18.17;;;13.98;;
52414;SDS011;38340;52.964;6.086;2024-01-30T07:35:14;23.60;;;13.43;;
52414;SDS011;38340;52.964;6.086;2024-01-30T07:37:40;17.20;;;13.80;;
52414;SDS011;38340;52.964;6.086;2024-01-30T07:40:06;20.30;;;14.77;;
52414;SDS011;38340;52.964;6.086;2024-01-30T07:42:32;18.55;;;13.50;;
52414;SDS011;38340;52.964;6.086;2024-01-30T07:44:58;28.58;;;13.52;;
52414;SDS011;38340;52.964;6.086;2024-01-30T07:47:25;18.67;;;13.95;;
52414;SDS011;38340;52.964;6.086;2024-01-30T07:49:50;17.75;;;13.18;;
52414;SDS011;38340;52.964;6.086;2024-01-30T07:52:16;19.50;;;13.30;;
52414;SDS011;38340;52.964;6.086;2024-01-30T07:54:48;17.50;;;13.52;;
52414;SDS011;38340;52.964;6.086;2024-01-30T07:57:14;20.95;;;13.90;;
52414;SDS011;38340;52.964;6.086;2024-01-30T07:59:42;21.00;;;13.43;;
52414;SDS011;38340;52.964;6.086;2024-01-30T08:02:09;18.05;;;13.95;;
52414;SDS011;38340;52.964;6.086;2024-01-30T08:04:35;18.40;;;12.88;;
52414;SDS011;38340;52.964;6.086;2024-01-30T08:07:01;18.50;;;12.80;;
52414;SDS011;38340;52.964;6.086;2024-01-30T08:09:27;17.42;;;13.23;;
52414;SDS011;38340;52.964;6.086;2024-01-30T08:11:53;19.50;;;13.85;;
52414;SDS011;38340;52.964;6.086;2024-01-30T08:14:18;15.50;;;12.50;;
52414;SDS011;38340;52.964;6.086;2024-01-30T08:16:44;18.48;;;13.90;;
52414;SDS011;38340;52.964;6.086;2024-01-30T08:19:10;18.88;;;14.30;;
52414;SDS011;38340;52.964;6.086;2024-01-30T08:21:35;22.63;;;14.90;;
52414;SDS011;38340;52.964;6.086;2024-01-30T08:24:04;18.73;;;14.27;;
52414;SDS011;38340;52.964;6.086;2024-01-30T08:26:34;21.58;;;13.57;;
52414;SDS011;38340;52.964;6.086;2024-01-30T08:29:00;18.65;;;13.90;;
52414;SDS011;38340;52.964;6.086;2024-01-30T08:31:26;24.30;;;15.57;;
52414;SDS011;38340;52.964;6.086;2024-01-30T08:33:52;19.95;;;13.75;;
52414;SDS011;38340;52.964;6.086;2024-01-30T08:36:19;21.45;;;14.27;;
52414;SDS011;38340;52.964;6.086;2024-01-30T08:38:45;19.77;;;14.27;;
52414;SDS011;38340;52.964;6.086;2024-01-30T08:41:10;20.42;;;13.68;;
52414;SDS011;38340;52.964;6.086;2024-01-30T08:43:36;21.65;;;13.35;;
52414;SDS011;38340;52.964;6.086;2024-01-30T08:46:02;19.58;;;13.10;;
52414;SDS011;38340;52.964;6.086;2024-01-30T08:48:28;18.25;;;12.73;;
52414;SDS011;38340;52.964;6.086;2024-01-30T08:50:54;22.40;;;13.57;;
52414;SDS011;38340;52.964;6.086;2024-01-30T08:53:20;17.38;;;12.55;;
52414;SDS011;38340;52.964;6.086;2024-01-30T08:55:46;18.88;;;14.10;;
52414;SDS011;38340;52.964;6.086;2024-01-30T08:58:12;22.85;;;14.00;;
52414;SDS011;38340;52.964;6.086;2024-01-30T09:00:38;16.35;;;13.20;;
52414;SDS011;38340;52.964;6.086;2024-01-30T09:03:03;19.17;;;13.60;;
52414;SDS011;38340;52.964;6.086;2024-01-30T09:05:29;18.88;;;13.40;;
52414;SDS011;38340;52.964;6.086;2024-01-30T09:07:55;21.40;;;14.93;;
52414;SDS011;38340;52.964;6.086;2024-01-30T09:10:21;21.05;;;14.93;;
52414;SDS011;38340;52.964;6.086;2024-01-30T09:12:47;30.50;;;19.92;;
52414;SDS011;38340;52.964;6.086;2024-01-30T09:15:13;22.88;;;15.95;;
52414;SDS011;38340;52.964;6.086;2024-01-30T09:17:39;22.38;;;14.95;;
52414;SDS011;38340;52.964;6.086;2024-01-30T09:20:04;18.95;;;13.77;;
52414;SDS011;38340;52.964;6.086;2024-01-30T09:22:31;21.38;;;15.57;;
52414;SDS011;38340;52.964;6.086;2024-01-30T09:24:56;22.48;;;15.93;;
52414;SDS011;38340;52.964;6.086;2024-01-30T09:27:22;21.77;;;14.80;;
52414;SDS011;38340;52.964;6.086;2024-01-30T09:29:48;20.17;;;14.40;;
52414;SDS011;38340;52.964;6.086;2024-01-30T09:32:14;22.33;;;15.63;;
52414;SDS011;38340;52.964;6.086;2024-01-30T09:34:40;20.50;;;14.88;;
52414;SDS011;38340;52.964;6.086;2024-01-30T09:37:07;19.88;;;13.75;;
52414;SDS011;38340;52.964;6.086;2024-01-30T09:39:32;21.33;;;14.98;;
52414;SDS011;38340;52.964;6.086;2024-01-30T09:42:05;29.08;;;14.55;;
52414;SDS011;38340;52.964;6.086;2024-01-30T09:44:43;22.17;;;14.63;;
52414;SDS011;38340;52.964;6.086;2024-01-30T09:47:09;22.98;;;15.75;;
52414;SDS011;38340;52.964;6.086;2024-01-30T09:49:35;24.27;;;16.38;;
52414;SDS011;38340;52.964;6.086;2024-01-30T09:52:03;21.23;;;15.30;;
52414;SDS011;38340;52.964;6.086;2024-01-30T09:54:30;22.52;;;13.90;;
52414;SDS011;38340;52.964;6.086;2024-01-30T09:56:57;21.15;;;13.90;;
52414;SDS011;38340;52.964;6.086;2024-01-30T09:59:23;24.90;;;14.48;;
52414;SDS011;38340;52.964;6.086;2024-01-30T10:01:49;20.83;;;14.45;;
52414;SDS011;38340;52.964;6.086;2024-01-30T10:04:16;22.33;;;14.68;;
52414;SDS011;38340;52.964;6.086;2024-01-30T10:06:42;20.05;;;14.90;;
52414;SDS011;38340;52.964;6.086;2024-01-30T10:09:07;21.35;;;14.40;;
52414;SDS011;38340;52.964;6.086;2024-01-30T10:11:36;26.30;;;14.70;;
52414;SDS011;38340;52.964;6.086;2024-01-30T10:14:02;22.33;;;15.35;;
52414;SDS011;38340;52.964;6.086;2024-01-30T10:16:28;24.67;;;16.35;;
52414;SDS011;38340;52.964;6.086;2024-01-30T10:18:53;27.88;;;17.08;;
52414;SDS011;38340;52.964;6.086;2024-01-30T10:21:20;28.75;;;17.10;;
52414;SDS011;38340;52.964;6.086;2024-01-30T10:23:46;27.65;;;16.65;;
52414;SDS011;38340;52.964;6.086;2024-01-30T10:26:11;28.88;;;16.48;;
52414;SDS011;38340;52.964;6.086;2024-01-30T10:28:37;28.90;;;17.60;;
52414;SDS011;38340;52.964;6.086;2024-01-30T10:31:03;22.60;;;13.70;;
52414;SDS011;38340;52.964;6.086;2024-01-30T10:33:30;22.73;;;14.65;;
52414;SDS011;38340;52.964;6.086;2024-01-30T10:36:02;20.08;;;14.02;;
52414;SDS011;38340;52.964;6.086;2024-01-30T10:38:29;19.60;;;13.75;;
52414;SDS011;38340;52.964;6.086;2024-01-30T10:40:56;22.92;;;14.57;;
52414;SDS011;38340;52.964;6.086;2024-01-30T10:43:24;20.30;;;14.50;;
52414;SDS011;38340;52.964;6.086;2024-01-30T10:45:56;20.58;;;14.18;;
52414;SDS011;38340;52.964;6.086;2024-01-30T10:48:29;19.13;;;13.68;;
52414;SDS011;38340;52.964;6.086;2024-01-30T10:50:55;19.33;;;14.13;;
52414;SDS011;38340;52.964;6.086;2024-01-30T10:53:24;18.70;;;13.50;;
52414;SDS011;38340;52.964;6.086;2024-01-30T10:55:51;22.98;;;13.95;;
52414;SDS011;38340;52.964;6.086;2024-01-30T10:58:17;24.17;;;12.75;;
52414;SDS011;38340;52.964;6.086;2024-01-30T11:00:43;15.27;;;11.20;;
52414;SDS011;38340;52.964;6.086;2024-01-30T11:03:10;19.70;;;10.60;;
52414;SDS011;38340;52.964;6.086;2024-01-30T11:05:40;16.15;;;9.07;;
52414;SDS011;38340;52.964;6.086;2024-01-30T11:08:12;19.25;;;9.52;;
52414;SDS011;38340;52.964;6.086;2024-01-30T11:10:48;17.98;;;8.98;;
52414;SDS011;38340;52.964;6.086;2024-01-30T11:13:15;17.17;;;8.35;;
52414;SDS011;38340;52.964;6.086;2024-01-30T11:15:43;15.43;;;6.57;;
52414;SDS011;38340;52.964;6.086;2024-01-30T11:18:12;17.27;;;7.93;;
52414;SDS011;38340;52.964;6.086;2024-01-30T11:20:48;14.63;;;5.22;;
52414;SDS011;38340;52.964;6.086;2024-01-30T11:23:14;15.07;;;5.38;;
52414;SDS011;38340;52.964;6.086;2024-01-30T11:25:40;9.00;;;4.40;;
52414;SDS011;38340;52.964;6.086;2024-01-30T11:28:06;11.85;;;4.20;;
52414;SDS011;38340;52.964;6.086;2024-01-30T11:30:40;10.88;;;4.18;;
52414;SDS011;38340;52.964;6.086;2024-01-30T11:33:06;10.07;;;3.67;;
52414;SDS011;38340;52.964;6.086;2024-01-30T11:38:06;8.75;;;3.53;;
52414;SDS011;38340;52.964;6.086;2024-01-30T11:40:34;9.18;;;3.50;;
52414;SDS011;38340;52.964;6.086;2024-01-30T11:43:00;8.30;;;3.38;;
52414;SDS011;38340;52.964;6.086;2024-01-30T11:45:27;7.40;;;3.83;;
52414;SDS011;38340;52.964;6.086;2024-01-30T11:47:53;9.02;;;3.55;;
52414;SDS011;38340;52.964;6.086;2024-01-30T11:50:19;7.55;;;3.90;;
52414;SDS011;38340;52.964;6.086;2024-01-30T11:52:45;7.70;;;3.70;;
52414;SDS011;38340;52.964;6.086;2024-01-30T11:55:12;9.90;;;3.60;;
52414;SDS011;38340;52.964;6.086;2024-01-30T11:57:39;6.28;;;3.10;;
52414;SDS011;38340;52.964;6.086;2024-01-30T12:00:05;5.20;;;3.22;;
52414;SDS011;38340;52.964;6.086;2024-01-30T12:02:35;4.82;;;2.75;;
52414;SDS011;38340;52.964;6.086;2024-01-30T12:05:05;5.90;;;2.55;;
52414;SDS011;38340;52.964;6.086;2024-01-30T12:07:31;4.95;;;2.08;;
52414;SDS011;38340;52.964;6.086;2024-01-30T12:09:57;5.35;;;2.85;;
52414;SDS011;38340;52.964;6.086;2024-01-30T12:12:27;6.18;;;2.40;;
52414;SDS011;38340;52.964;6.086;2024-01-30T12:14:53;5.45;;;2.90;;
52414;SDS011;38340;52.964;6.086;2024-01-30T12:17:29;3.45;;;2.22;;
52414;SDS011;38340;52.964;6.086;2024-01-30T12:20:02;7.97;;;2.78;;
52414;SDS011;38340;52.964;6.086;2024-01-30T12:22:29;8.32;;;2.90;;
52414;SDS011;38340;52.964;6.086;2024-01-30T12:24:55;7.47;;;2.88;;
52414;SDS011;38340;52.964;6.086;2024-01-30T12:27:21;7.57;;;3.30;;
52414;SDS011;38340;52.964;6.086;2024-01-30T12:29:48;8.23;;;3.10;;
52414;SDS011;38340;52.964;6.086;2024-01-30T12:32:20;6.63;;;2.60;;
52414;SDS011;38340;52.964;6.086;2024-01-30T12:34:48;5.78;;;2.90;;
52414;SDS011;38340;52.964;6.086;2024-01-30T12:37:13;5.75;;;3.47;;
52414;SDS011;38340;52.964;6.086;2024-01-30T12:39:41;8.52;;;3.42;;
52414;SDS011;38340;52.964;6.086;2024-01-30T12:42:07;5.63;;;2.92;;
52414;SDS011;38340;52.964;6.086;2024-01-30T12:44:33;5.82;;;2.97;;
52414;SDS011;38340;52.964;6.086;2024-01-30T12:46:59;5.60;;;2.97;;
52414;SDS011;38340;52.964;6.086;2024-01-30T12:49:28;4.90;;;2.92;;
52414;SDS011;38340;52.964;6.086;2024-01-30T12:51:54;4.40;;;2.30;;
52414;SDS011;38340;52.964;6.086;2024-01-30T12:54:20;6.78;;;2.90;;
52414;SDS011;38340;52.964;6.086;2024-01-30T12:56:45;4.28;;;2.20;;
52414;SDS011;38340;52.964;6.086;2024-01-30T12:59:11;10.23;;;2.70;;
52414;SDS011;38340;52.964;6.086;2024-01-30T13:01:37;5.00;;;2.17;;
52414;SDS011;38340;52.964;6.086;2024-01-30T13:04:02;6.40;;;3.67;;
52414;SDS011;38340;52.964;6.086;2024-01-30T13:06:28;5.03;;;2.65;;
52414;SDS011;38340;52.964;6.086;2024-01-30T13:08:54;3.53;;;2.22;;
52414;SDS011;38340;52.964;6.086;2024-01-30T13:11:19;5.93;;;2.85;;
52414;SDS011;38340;52.964;6.086;2024-01-30T13:13:45;4.70;;;2.20;;
52414;SDS011;38340;52.964;6.086;2024-01-30T13:16:11;3.42;;;2.10;;
52414;SDS011;38340;52.964;6.086;2024-01-30T13:18:37;7.25;;;2.30;;
52414;SDS011;38340;52.964;6.086;2024-01-30T13:21:02;4.45;;;3.28;;
52414;SDS011;38340;52.964;6.086;2024-01-30T13:23:28;4.07;;;2.42;;
52414;SDS011;38340;52.964;6.086;2024-01-30T13:25:54;5.20;;;2.40;;
52414;SDS011;38340;52.964;6.086;2024-01-30T13:28:23;4.35;;;2.45;;
52414;SDS011;38340;52.964;6.086;2024-01-30T13:30:49;3.90;;;2.20;;
52414;SDS011;38340;52.964;6.086;2024-01-30T13:33:14;5.30;;;2.35;;
52414;SDS011;38340;52.964;6.086;2024-01-30T13:35:40;6.65;;;2.60;;
52414;SDS011;38340;52.964;6.086;2024-01-30T13:38:06;6.53;;;3.28;;
52414;SDS011;38340;52.964;6.086;2024-01-30T13:40:31;7.20;;;2.60;;
52414;SDS011;38340;52.964;6.086;2024-01-30T13:42:57;8.15;;;3.30;;
52414;SDS011;38340;52.964;6.086;2024-01-30T13:45:23;5.07;;;3.13;;
52414;SDS011;38340;52.964;6.086;2024-01-30T13:47:48;8.73;;;4.55;;
52414;SDS011;38340;52.964;6.086;2024-01-30T13:50:14;8.80;;;4.55;;
52414;SDS011;38340;52.964;6.086;2024-01-30T13:52:42;7.43;;;5.38;;
52414;SDS011;38340;52.964;6.086;2024-01-30T13:55:08;7.57;;;5.20;;
52414;SDS011;38340;52.964;6.086;2024-01-30T13:57:35;9.23;;;4.97;;
52414;SDS011;38340;52.964;6.086;2024-01-30T14:00:02;9.18;;;5.10;;
52414;SDS011;38340;52.964;6.086;2024-01-30T14:02:30;10.52;;;6.30;;
52414;SDS011;38340;52.964;6.086;2024-01-30T14:04:56;13.70;;;9.18;;
52414;SDS011;38340;52.964;6.086;2024-01-30T14:07:22;9.45;;;6.57;;
52414;SDS011;38340;52.964;6.086;2024-01-30T14:09:48;11.73;;;8.20;;
52414;SDS011;38340;52.964;6.086;2024-01-30T14:12:14;12.38;;;7.40;;
52414;SDS011;38340;52.964;6.086;2024-01-30T14:14:40;10.93;;;6.10;;
52414;SDS011;38340;52.964;6.086;2024-01-30T14:17:06;10.30;;;5.90;;
52414;SDS011;38340;52.964;6.086;2024-01-30T14:19:35;9.95;;;5.78;;
52414;SDS011;38340;52.964;6.086;2024-01-30T14:22:01;9.98;;;6.45;;
52414;SDS011;38340;52.964;6.086;2024-01-30T14:24:27;9.52;;;5.90;;